createdAt,value
2022-11-12T00:00:06.585Z,90.77
2022-11-12T00:01:28.913Z,90.60
2022-11-12T00:02:50.550Z,90.89
2022-11-12T00:04:13.061Z,90.97
2022-11-12T00:05:34.319Z,91.41
2022-11-12T00:06:57.976Z,91.05
2022-11-12T00:08:19.121Z,91.03
2022-11-12T00:09:41.432Z,91.51
2022-11-12T00:11:05.127Z,91.46
2022-11-12T00:12:26.162Z,91.75
2022-11-12T00:13:48.740Z,91.37
2022-11-12T00:15:11.090Z,91.33
2022-11-12T00:16:33.622Z,91.55
2022-11-12T00:17:54.940Z,91.67
2022-11-12T00:19:17.091Z,91.53
2022-11-12T00:20:38.310Z,91.57
2022-11-12T00:22:01.884Z,91.06
2022-11-12T00:23:23.283Z,91.31
2022-11-12T00:24:45.679Z,91.43
2022-11-12T00:26:08.079Z,91.37
2022-11-12T00:27:30.183Z,91.10
2022-11-12T00:28:52.252Z,90.64
2022-11-12T00:30:13.783Z,90.86
2022-11-12T00:31:37.381Z,90.90
2022-11-12T00:32:58.962Z,91.01
2022-11-12T00:34:21.414Z,91.18
2022-11-12T00:35:42.822Z,90.86
2022-11-12T00:37:06.495Z,91.19
2022-11-12T00:38:31.710Z,90.94
2022-11-12T00:39:52.961Z,90.64
2022-11-12T00:41:15.048Z,90.85
2022-11-12T00:42:36.550Z,90.80
2022-11-12T00:43:59.043Z,90.54
2022-11-12T00:45:21.906Z,90.25
2022-11-12T00:46:43.276Z,90.48
2022-11-12T00:48:05.720Z,90.42
2022-11-12T00:49:28.102Z,90.54
2022-11-12T00:50:49.654Z,90.82
2022-11-12T00:52:13.186Z,90.55
2022-11-12T00:53:35.412Z,90.22
2022-11-12T00:54:56.566Z,90.42
2022-11-12T00:56:19.110Z,90.79
2022-11-12T00:57:41.210Z,90.62
2022-11-12T00:59:02.543Z,90.46
2022-11-12T01:00:24.942Z,90.68
2022-11-12T01:01:46.522Z,90.55
2022-11-12T01:03:08.733Z,90.43
2022-11-12T01:04:29.994Z,90.64
2022-11-12T01:05:52.432Z,90.51
2022-11-12T01:07:16.195Z,90.69
2022-11-12T01:08:38.814Z,90.79
2022-11-12T01:09:59.943Z,90.58
2022-11-12T01:11:24.201Z,90.42
2022-11-12T01:12:45.552Z,90.49
2022-11-12T01:14:09.452Z,90.52
2022-11-12T01:15:30.783Z,90.15
2022-11-12T01:16:53.214Z,90.22
2022-11-12T01:18:14.572Z,90.28
2022-11-12T01:19:37.030Z,90.51
2022-11-12T01:21:01.975Z,90.46
2022-11-12T01:22:25.864Z,90.02
2022-11-12T01:23:47.029Z,89.66
2022-11-12T01:25:09.913Z,89.65
2022-11-12T01:26:31.374Z,90.29
2022-11-12T01:27:53.822Z,90.14
2022-11-12T01:29:15.152Z,90.21
2022-11-12T01:30:37.428Z,90.16
2022-11-12T01:31:59.615Z,90.14
2022-11-12T01:33:20.572Z,90.15
2022-11-12T01:34:42.799Z,89.92
2022-11-12T01:36:04.033Z,89.54
2022-11-12T01:37:27.601Z,89.88
2022-11-12T01:38:49.744Z,90.02
2022-11-12T01:40:12.795Z,89.79
2022-11-12T01:41:36.902Z,90.02
2022-11-12T01:42:59.331Z,90.04
2022-11-12T01:44:22.802Z,90.42
2022-11-12T01:45:47.972Z,90.14
2022-11-12T01:47:13.510Z,89.85
2022-11-12T01:48:38.662Z,90.13
2022-11-12T01:50:02.587Z,90.08
2022-11-12T01:51:25.742Z,89.93
2022-11-12T01:52:52.160Z,89.78
2022-11-12T01:54:16.150Z,90.14
2022-11-12T01:55:39.243Z,90.11
2022-11-12T01:57:00.744Z,90.14
2022-11-12T01:58:25.369Z,90.22
2022-11-12T01:59:48.439Z,90.16
2022-11-12T02:01:10.702Z,90.09
2022-11-12T02:02:31.932Z,90.23
2022-11-12T02:03:54.116Z,90.05
2022-11-12T02:05:15.805Z,90.06
2022-11-12T02:06:38.473Z,89.95
2022-11-12T02:08:01.550Z,89.49
2022-11-12T02:09:24.091Z,89.57
2022-11-12T02:10:46.678Z,89.52
2022-11-12T02:12:08.060Z,89.77
2022-11-12T02:13:47.483Z,89.83
2022-11-12T02:15:10.559Z,89.92
2022-11-12T02:16:34.312Z,90.05
2022-11-12T02:17:56.379Z,90.12
2022-11-12T02:19:19.232Z,90.15
2022-11-12T02:20:40.829Z,90.14
2022-11-12T02:22:04.373Z,90.28
2022-11-12T02:23:25.714Z,90.10
2022-11-12T02:24:48.195Z,89.93
2022-11-12T02:26:09.652Z,89.84
2022-11-12T02:27:31.730Z,89.89
2022-11-12T02:28:52.810Z,90.16
2022-11-12T02:30:15.071Z,90.17
2022-11-12T02:31:37.277Z,90.35
2022-11-12T02:32:59.012Z,90.32
2022-11-12T02:34:21.161Z,90.41
2022-11-12T02:35:42.660Z,90.48
2022-11-12T02:37:06.323Z,90.60
2022-11-12T02:38:27.760Z,90.72
2022-11-12T02:39:50.462Z,90.89
2022-11-12T02:41:11.539Z,90.87
2022-11-12T02:42:33.990Z,90.67
2022-11-12T02:43:56.000Z,90.92
2022-11-12T02:45:18.235Z,90.93
2022-11-12T02:46:40.712Z,91.13
2022-11-12T02:48:01.979Z,91.26
2022-11-12T02:49:24.458Z,91.20
2022-11-12T02:50:47.913Z,91.22
2022-11-12T02:52:10.471Z,90.98
2022-11-12T02:53:33.341Z,91.01
2022-11-12T02:54:54.361Z,90.70
2022-11-12T02:56:16.670Z,90.66
2022-11-12T02:57:39.980Z,91.12
2022-11-12T02:59:01.688Z,90.68
2022-11-12T03:00:24.370Z,90.65
2022-11-12T03:01:46.890Z,90.56
2022-11-12T03:03:08.163Z,90.78
2022-11-12T03:04:30.690Z,90.59
2022-11-12T03:06:00.810Z,90.68
2022-11-12T03:07:24.508Z,90.04
2022-11-12T03:08:47.036Z,90.18
2022-11-12T03:10:10.193Z,90.39
2022-11-12T03:11:32.670Z,90.31
2022-11-12T03:12:53.852Z,90.73
2022-11-12T03:14:16.196Z,90.52
2022-11-12T03:15:38.283Z,90.88
2022-11-12T03:16:59.379Z,90.64
2022-11-12T03:18:21.533Z,90.68
2022-11-12T03:19:43.036Z,90.44
2022-11-12T03:21:06.008Z,90.49
2022-11-12T03:22:28.694Z,90.89
2022-11-12T03:23:51.218Z,90.66
2022-11-12T03:25:12.651Z,90.68
2022-11-12T03:26:36.077Z,90.86
2022-11-12T03:27:58.600Z,90.79
2022-11-12T03:29:21.131Z,91.14
2022-11-12T03:30:43.450Z,91.10
2022-11-12T03:32:06.290Z,91.08
2022-11-12T03:33:27.670Z,90.86
2022-11-12T03:34:55.142Z,90.54
2022-11-12T03:36:18.038Z,90.27
2022-11-12T03:37:40.923Z,90.20
2022-11-12T03:39:03.404Z,90.15
2022-11-12T03:40:26.288Z,90.20
2022-11-12T03:41:47.516Z,90.34
2022-11-12T03:43:10.611Z,90.30
2022-11-12T03:44:32.917Z,90.17
2022-11-12T03:45:55.304Z,90.91
2022-11-12T03:47:16.764Z,90.97
2022-11-12T03:48:38.869Z,90.86
2022-11-12T03:49:59.900Z,90.61
2022-11-12T03:51:22.919Z,90.46
2022-11-12T03:52:46.916Z,90.65
2022-11-12T03:54:09.571Z,90.25
2022-11-12T03:55:31.291Z,90.25
2022-11-12T03:56:53.539Z,90.32
2022-11-12T03:58:16.197Z,90.30
2022-11-12T03:59:37.852Z,90.45
2022-11-12T04:01:00.169Z,90.61
2022-11-12T04:02:21.503Z,90.48
2022-11-12T04:03:43.840Z,90.53
2022-11-12T04:05:25.009Z,90.48
2022-11-12T04:07:04.824Z,90.15
2022-11-12T04:08:36.565Z,90.15
2022-11-12T04:09:58.672Z,89.94
2022-11-12T04:11:21.335Z,89.92
2022-11-12T04:13:00.773Z,90.06
2022-11-12T04:14:23.163Z,90.27
2022-11-12T04:15:44.422Z,90.37
2022-11-12T04:17:23.571Z,90.32
2022-11-12T04:19:04.831Z,90.60
2022-11-12T04:20:44.533Z,90.68
2022-11-12T04:22:09.101Z,90.53
2022-11-12T04:23:31.740Z,90.71
2022-11-12T04:25:11.290Z,90.44
2022-11-12T04:26:33.803Z,90.73
2022-11-12T04:27:54.972Z,90.87
2022-11-12T04:29:37.563Z,90.94
2022-11-12T04:30:59.844Z,91.02
2022-11-12T04:32:21.277Z,91.33
2022-11-12T04:33:44.133Z,91.32
2022-11-12T04:35:07.435Z,91.51
2022-11-12T04:36:28.322Z,92.04
2022-11-12T04:37:50.762Z,91.96
2022-11-12T04:39:13.420Z,92.25
2022-11-12T04:40:52.810Z,92.32
2022-11-12T04:42:32.750Z,92.49
2022-11-12T04:44:12.233Z,92.59
2022-11-12T04:45:42.437Z,92.59
2022-11-12T04:47:03.452Z,92.81
2022-11-12T04:48:26.831Z,92.65
2022-11-12T04:49:48.019Z,92.56
2022-11-12T04:51:31.751Z,92.23
2022-11-12T04:52:53.123Z,91.94
2022-11-12T04:54:16.917Z,91.78
2022-11-12T04:55:39.006Z,91.92
2022-11-12T04:57:00.043Z,91.87
2022-11-12T04:58:22.830Z,91.88
2022-11-12T04:59:44.235Z,92.04
2022-11-12T05:01:06.440Z,92.24
2022-11-12T05:02:28.729Z,92.02
2022-11-12T05:03:50.091Z,91.87
2022-11-12T05:05:12.389Z,91.47
2022-11-12T05:06:51.570Z,91.31
2022-11-12T05:08:13.771Z,91.78
2022-11-12T05:09:36.802Z,91.88
2022-11-12T05:10:58.990Z,91.67
2022-11-12T05:12:20.081Z,91.63
2022-11-12T05:13:42.164Z,91.62
2022-11-12T05:15:05.140Z,91.69
2022-11-12T05:16:26.603Z,91.46
2022-11-12T05:17:49.295Z,91.29
2022-11-12T05:19:10.371Z,91.14
2022-11-12T05:20:32.714Z,90.91
2022-11-12T05:22:06.502Z,91.35
2022-11-12T05:23:28.610Z,91.45
2022-11-12T05:24:52.320Z,91.73
2022-11-12T05:26:13.393Z,91.30
2022-11-12T05:27:36.251Z,91.04
2022-11-12T05:28:57.722Z,91.09
2022-11-12T05:30:20.261Z,91.41
2022-11-12T05:31:41.272Z,91.72
2022-11-12T05:33:03.934Z,91.63
2022-11-12T05:34:26.221Z,91.46
2022-11-12T05:35:47.669Z,91.17
2022-11-12T05:37:10.518Z,91.14
2022-11-12T05:38:31.836Z,91.46
2022-11-12T05:39:55.431Z,91.30
2022-11-12T05:41:20.120Z,91.52
2022-11-12T05:42:42.880Z,91.76
2022-11-12T05:44:04.421Z,92.05
2022-11-12T05:45:26.901Z,92.17
2022-11-12T05:46:50.481Z,92.30
2022-11-12T05:48:12.491Z,92.14
2022-11-12T05:49:34.633Z,92.24
2022-11-12T05:51:12.405Z,92.07
2022-11-12T05:52:35.453Z,91.98
2022-11-12T05:53:57.110Z,92.08
2022-11-12T05:55:20.932Z,91.80
2022-11-12T05:56:43.188Z,91.89
2022-11-12T05:58:06.125Z,92.15
2022-11-12T05:59:28.000Z,92.15
2022-11-12T06:00:49.322Z,92.16
2022-11-12T06:02:11.521Z,92.38
2022-11-12T06:03:32.830Z,92.40
2022-11-12T06:04:54.901Z,92.46
2022-11-12T06:06:16.395Z,92.41
2022-11-12T06:07:38.921Z,92.45
2022-11-12T06:09:01.286Z,92.35
2022-11-12T06:10:24.831Z,92.15
2022-11-12T06:11:47.229Z,92.11
2022-11-12T06:13:08.539Z,92.02
2022-11-12T06:14:30.912Z,91.88
2022-11-12T06:15:52.088Z,92.00
2022-11-12T06:17:14.107Z,92.19
2022-11-12T06:18:35.521Z,92.21
2022-11-12T06:19:58.071Z,91.99
2022-11-12T06:21:23.162Z,91.90
2022-11-12T06:22:45.596Z,92.15
2022-11-12T06:24:08.389Z,92.39
2022-11-12T06:25:31.020Z,92.36
2022-11-12T06:26:53.051Z,92.53
2022-11-12T06:28:14.270Z,92.59
2022-11-12T06:29:36.560Z,92.71
2022-11-12T06:30:59.083Z,93.03
2022-11-12T06:32:20.310Z,93.20
2022-11-12T06:33:43.271Z,93.08
2022-11-12T06:35:05.096Z,92.89
2022-11-12T06:36:27.212Z,92.79
2022-11-12T06:37:48.899Z,92.82
2022-11-12T06:39:12.449Z,92.84
2022-11-12T06:40:35.259Z,92.89
2022-11-12T06:41:57.511Z,93.44
2022-11-12T06:43:18.662Z,93.60
2022-11-12T06:44:41.121Z,93.71
2022-11-12T06:46:02.982Z,93.95
2022-11-12T06:47:25.357Z,94.17
2022-11-12T06:48:47.836Z,93.81
2022-11-12T06:50:09.692Z,93.83
2022-11-12T06:51:31.800Z,94.36
2022-11-12T06:52:58.859Z,94.29
2022-11-12T06:54:21.069Z,94.15
2022-11-12T06:55:44.509Z,94.22
2022-11-12T06:57:06.821Z,94.80
2022-11-12T06:58:28.384Z,95.17
2022-11-12T06:59:51.163Z,95.39
2022-11-12T07:01:15.102Z,95.54
2022-11-12T07:02:37.658Z,95.49
2022-11-12T07:03:59.809Z,95.44
2022-11-12T07:05:20.972Z,96.02
2022-11-12T07:06:43.383Z,95.63
2022-11-12T07:08:06.044Z,95.70
2022-11-12T07:09:28.259Z,95.77
2022-11-12T07:10:52.131Z,96.18
2022-11-12T07:12:14.650Z,96.07
2022-11-12T07:13:40.625Z,95.97
2022-11-12T07:15:01.827Z,95.82
2022-11-12T07:16:24.416Z,96.20
2022-11-12T07:17:47.235Z,96.31
2022-11-12T07:19:09.669Z,96.69
2022-11-12T07:20:31.012Z,96.32
2022-11-12T07:21:53.578Z,96.63
2022-11-12T07:23:15.716Z,96.40
2022-11-12T07:24:38.342Z,96.91
2022-11-12T07:26:03.921Z,96.78
2022-11-12T07:27:25.410Z,96.92
2022-11-12T07:28:48.042Z,97.34
2022-11-12T07:30:11.189Z,97.24
2022-11-12T07:31:32.374Z,97.22
2022-11-12T07:32:55.192Z,97.11
2022-11-12T07:34:20.551Z,97.48
2022-11-12T07:35:43.759Z,97.70
2022-11-12T07:37:06.186Z,97.67
2022-11-12T07:38:29.444Z,97.75
2022-11-12T07:39:52.101Z,98.16
2022-11-12T07:41:19.209Z,98.33
2022-11-12T07:42:41.804Z,98.68
2022-11-12T07:44:05.691Z,99.04
2022-11-12T07:45:28.663Z,98.77
2022-11-12T07:46:51.070Z,98.74
2022-11-12T07:48:13.651Z,98.90
2022-11-12T07:49:36.902Z,98.84
2022-11-12T07:51:03.141Z,99.15
2022-11-12T07:52:25.538Z,99.43
2022-11-12T07:53:48.942Z,99.45
2022-11-12T07:55:11.256Z,99.35
2022-11-12T07:56:35.241Z,99.70
2022-11-12T07:58:00.587Z,99.91
2022-11-12T07:59:22.942Z,100.00
2022-11-12T08:00:45.275Z,99.98
2022-11-12T08:02:09.972Z,99.95
2022-11-12T08:03:32.539Z,99.87
2022-11-12T08:04:54.711Z,99.83
2022-11-12T08:06:17.159Z,100.00
2022-11-12T08:07:39.649Z,100.00
2022-11-12T08:09:02.922Z,100.00
2022-11-12T08:10:25.181Z,100.00
2022-11-12T08:11:49.382Z,99.95
2022-11-12T08:13:12.153Z,100.00
2022-11-12T08:14:34.741Z,100.00
2022-11-12T08:15:58.750Z,100.00
2022-11-12T08:17:21.333Z,100.00
2022-11-12T08:18:43.912Z,100.00
2022-11-12T08:20:07.238Z,100.00
2022-11-12T08:21:29.920Z,100.00
2022-11-12T08:22:52.421Z,100.00
2022-11-12T08:24:14.754Z,100.00
2022-11-12T08:25:38.166Z,100.00
2022-11-12T08:27:01.990Z,100.00
2022-11-12T08:28:23.589Z,100.00
2022-11-12T08:29:47.258Z,100.00
2022-11-12T08:31:10.692Z,100.00
2022-11-12T08:32:33.412Z,100.00
2022-11-12T08:33:55.851Z,100.00
2022-11-12T08:35:18.383Z,100.00
2022-11-12T08:36:41.472Z,100.00
2022-11-12T08:38:05.583Z,100.00
2022-11-12T08:39:28.284Z,100.00
2022-11-12T08:40:50.470Z,100.00
2022-11-12T08:42:14.402Z,100.00
2022-11-12T08:43:37.218Z,100.00
2022-11-12T08:44:59.652Z,100.00
2022-11-12T08:46:21.882Z,100.00
2022-11-12T08:47:44.662Z,100.00
2022-11-12T08:49:07.023Z,100.00
2022-11-12T08:50:29.051Z,100.00
2022-11-12T08:51:52.029Z,100.00
2022-11-12T08:53:14.962Z,100.00
2022-11-12T08:54:37.221Z,100.00
2022-11-12T08:55:59.611Z,100.00
2022-11-12T08:57:23.501Z,100.00
2022-11-12T08:58:46.080Z,100.00
2022-11-12T09:00:09.397Z,100.00
2022-11-12T09:01:32.158Z,100.00
2022-11-12T09:02:54.498Z,100.00
2022-11-12T09:04:17.020Z,100.00
2022-11-12T09:05:39.420Z,100.00
2022-11-12T09:07:02.656Z,100.00
2022-11-12T09:08:26.746Z,100.00
2022-11-12T09:09:49.364Z,100.00
2022-11-12T09:11:12.069Z,100.00
2022-11-12T09:12:36.053Z,100.00
2022-11-12T09:13:58.631Z,100.00
2022-11-12T09:15:37.926Z,100.00
2022-11-12T09:17:00.811Z,100.00
2022-11-12T09:18:22.210Z,99.96
2022-11-12T09:19:44.471Z,99.56
2022-11-12T09:21:08.671Z,98.66
2022-11-12T09:22:32.433Z,98.54
2022-11-12T09:23:55.801Z,98.22
2022-11-12T09:25:17.517Z,96.98
2022-11-12T09:26:40.000Z,96.93
2022-11-12T09:28:09.810Z,97.21
2022-11-12T09:29:32.400Z,96.45
2022-11-12T09:30:55.908Z,96.54
2022-11-12T09:32:18.069Z,95.77
2022-11-12T09:33:40.649Z,95.46
2022-11-12T09:35:03.281Z,95.25
2022-11-12T09:36:25.810Z,94.82
2022-11-12T09:37:47.351Z,94.47
2022-11-12T09:39:09.650Z,94.02
2022-11-12T09:40:42.961Z,94.45
2022-11-12T09:42:08.822Z,94.22
2022-11-12T09:43:34.230Z,94.62
2022-11-12T09:44:59.201Z,94.45
2022-11-12T09:46:35.479Z,95.00
2022-11-12T09:48:00.652Z,95.17
2022-11-12T09:49:26.082Z,95.05
2022-11-12T09:50:55.930Z,94.46
2022-11-12T09:52:20.954Z,93.52
2022-11-12T09:53:48.943Z,93.69
2022-11-12T09:55:16.622Z,92.86
2022-11-12T09:56:39.147Z,92.67
2022-11-12T09:58:01.827Z,92.58
2022-11-12T09:59:28.808Z,92.96
2022-11-12T10:00:56.420Z,93.37
2022-11-12T10:02:28.629Z,94.10
2022-11-12T10:03:55.529Z,92.42
2022-11-12T10:05:29.824Z,90.28
2022-11-12T10:07:00.435Z,88.13
2022-11-12T10:08:33.195Z,90.55
2022-11-12T10:10:03.387Z,89.02
2022-11-12T10:12:14.572Z,89.29
2022-11-12T10:13:47.881Z,89.86
2022-11-12T10:16:03.704Z,89.75
2022-11-12T10:17:33.650Z,88.14
2022-11-12T10:19:18.110Z,89.16
2022-11-12T10:20:47.851Z,87.87
2022-11-12T10:22:25.073Z,87.62
2022-11-12T10:23:48.783Z,86.57
2022-11-12T10:25:16.041Z,87.58
2022-11-12T10:26:39.025Z,87.20
2022-11-12T10:28:03.690Z,86.17
2022-11-12T10:29:31.522Z,85.19
2022-11-12T10:30:58.112Z,85.67
2022-11-12T10:32:20.519Z,84.53
2022-11-12T10:33:43.121Z,84.98
2022-11-12T10:35:06.247Z,85.02
2022-11-12T10:36:33.673Z,85.35
2022-11-12T10:37:58.411Z,84.13
2022-11-12T10:39:37.353Z,85.19
2022-11-12T10:40:59.512Z,84.75
2022-11-12T10:42:22.835Z,84.59
2022-11-12T10:43:54.950Z,82.80
2022-11-12T10:45:21.911Z,82.76
2022-11-12T10:46:45.590Z,83.26
2022-11-12T10:48:26.961Z,83.46
2022-11-12T10:50:03.801Z,82.95
2022-11-12T10:51:28.744Z,83.20
2022-11-12T10:52:59.880Z,82.33
2022-11-12T10:54:30.203Z,82.34
2022-11-12T10:55:59.711Z,82.43
2022-11-12T10:57:23.039Z,81.66
2022-11-12T10:58:45.356Z,81.61
2022-11-12T11:00:09.400Z,81.31
2022-11-12T11:01:35.887Z,81.10
2022-11-12T11:03:00.822Z,80.10
2022-11-12T11:04:31.579Z,80.94
2022-11-12T11:05:57.301Z,80.49
2022-11-12T11:07:23.215Z,80.45
2022-11-12T11:08:47.236Z,81.33
2022-11-12T11:10:24.823Z,80.78
2022-11-12T11:11:50.902Z,80.40
2022-11-12T11:13:23.770Z,80.62
2022-11-12T11:14:45.880Z,80.59
2022-11-12T11:16:10.212Z,80.21
2022-11-12T11:17:32.690Z,79.37
2022-11-12T11:19:00.047Z,79.70
2022-11-12T11:20:24.551Z,79.35
2022-11-12T11:22:22.631Z,78.99
2022-11-12T11:23:49.920Z,78.21
2022-11-12T11:25:22.081Z,79.40
2022-11-12T11:26:54.380Z,78.72
2022-11-12T11:28:21.167Z,78.13
2022-11-12T11:30:03.594Z,77.11
2022-11-12T11:31:35.701Z,77.70
2022-11-12T11:33:24.975Z,76.54
2022-11-12T11:34:58.454Z,76.81
2022-11-12T11:36:25.730Z,76.95
2022-11-12T11:37:58.643Z,77.11
2022-11-12T11:39:28.473Z,77.32
2022-11-12T11:40:58.343Z,76.81
2022-11-12T11:42:40.410Z,76.43
2022-11-12T11:44:13.804Z,72.96
2022-11-12T11:45:50.516Z,75.43
2022-11-12T11:47:23.232Z,75.96
2022-11-12T11:48:54.930Z,75.52
2022-11-12T11:50:24.055Z,75.32
2022-11-12T11:51:52.299Z,75.05
2022-11-12T11:53:23.238Z,74.67
2022-11-12T11:54:57.382Z,74.19
2022-11-12T11:56:23.801Z,74.01
2022-11-12T11:57:54.621Z,73.92
2022-11-12T11:59:24.929Z,74.05
2022-11-12T12:00:49.845Z,73.87
2022-11-12T12:02:28.287Z,72.80
2022-11-12T12:04:03.184Z,72.42
2022-11-12T12:05:37.809Z,72.19
2022-11-12T12:07:09.722Z,72.01
2022-11-12T12:08:41.357Z,71.68
2022-11-12T12:10:09.637Z,72.20
2022-11-12T12:11:36.163Z,72.17
2022-11-12T12:13:01.461Z,72.52
2022-11-12T12:14:33.350Z,72.36
2022-11-12T12:16:16.317Z,71.55
2022-11-12T12:17:49.104Z,72.39
2022-11-12T12:19:22.501Z,72.39
2022-11-12T12:20:50.046Z,71.42
2022-11-12T12:22:15.411Z,71.93
2022-11-12T12:23:41.831Z,70.72
2022-11-12T12:25:11.134Z,70.89
2022-11-12T12:26:38.979Z,71.15
2022-11-12T12:28:03.289Z,71.98
2022-11-12T12:29:30.173Z,71.35
2022-11-12T12:30:54.301Z,71.15
2022-11-12T12:32:24.119Z,70.74
2022-11-12T12:33:50.156Z,71.14
2022-11-12T12:35:19.110Z,71.47
2022-11-12T12:36:43.614Z,71.42
2022-11-12T12:38:12.880Z,71.17
2022-11-12T12:39:47.526Z,71.62
2022-11-12T12:41:16.401Z,70.89
2022-11-12T12:42:43.512Z,70.72
2022-11-12T12:44:07.075Z,70.54
2022-11-12T12:45:37.328Z,69.57
2022-11-12T12:47:00.771Z,69.50
2022-11-12T12:48:25.283Z,69.88
2022-11-12T12:49:49.902Z,69.78
2022-11-12T12:51:12.302Z,68.89
2022-11-12T12:53:03.231Z,66.36
2022-11-12T12:54:57.029Z,65.54
2022-11-12T12:56:49.654Z,64.24
2022-11-12T12:58:29.172Z,67.50
2022-11-12T12:59:51.861Z,68.13
2022-11-12T13:01:28.412Z,68.21
2022-11-12T13:02:50.998Z,68.63
2022-11-12T13:04:13.201Z,67.90
2022-11-12T13:05:36.339Z,66.85
2022-11-12T13:06:59.234Z,67.16
2022-11-12T13:08:26.309Z,66.64
2022-11-12T13:09:49.309Z,66.04
2022-11-12T13:11:11.884Z,66.47
2022-11-12T13:13:03.581Z,66.25
2022-11-12T13:15:02.034Z,66.41
2022-11-12T13:17:02.505Z,66.45
2022-11-12T13:19:02.308Z,65.80
2022-11-12T13:20:40.298Z,66.40
2022-11-12T13:22:49.353Z,66.31
2022-11-12T13:24:13.251Z,66.76
2022-11-12T13:25:34.711Z,66.92
2022-11-12T13:27:03.637Z,66.20
2022-11-12T13:28:25.280Z,65.75
2022-11-12T13:29:49.784Z,65.84
2022-11-12T13:31:36.469Z,65.04
2022-11-12T13:33:11.851Z,65.13
2022-11-12T13:34:45.576Z,65.19
2022-11-12T13:36:43.519Z,63.30
2022-11-12T13:38:25.588Z,65.55
2022-11-12T13:39:56.980Z,65.83
2022-11-12T13:41:43.779Z,65.78
2022-11-12T13:43:12.353Z,65.76
2022-11-12T13:44:49.098Z,66.09
2022-11-12T13:46:33.471Z,65.36
2022-11-12T13:47:57.184Z,65.27
2022-11-12T13:49:19.669Z,65.53
2022-11-12T13:50:43.088Z,65.06
2022-11-12T13:52:07.816Z,65.09
2022-11-12T13:53:33.141Z,65.22
2022-11-12T13:55:09.424Z,65.03
2022-11-12T13:56:40.972Z,64.87
2022-11-12T13:58:05.598Z,64.81
2022-11-12T13:59:27.755Z,65.48
2022-11-12T14:00:54.383Z,64.96
2022-11-12T14:02:30.741Z,65.33
2022-11-12T14:04:02.744Z,65.53
2022-11-12T14:05:31.080Z,65.62
2022-11-12T14:06:59.330Z,65.94
2022-11-12T14:09:06.072Z,66.08
2022-11-12T14:10:46.266Z,66.78
2022-11-12T14:12:29.779Z,66.53
2022-11-12T14:14:12.894Z,66.24
2022-11-12T14:15:52.732Z,66.25
2022-11-12T14:17:23.465Z,66.48
2022-11-12T14:19:03.496Z,66.30
2022-11-12T14:20:30.681Z,66.49
2022-11-12T14:22:03.390Z,66.69
2022-11-12T14:23:26.852Z,66.94
2022-11-12T14:24:54.542Z,66.94
2022-11-12T14:26:35.432Z,67.10
2022-11-12T14:27:58.241Z,67.72
2022-11-12T14:29:19.819Z,67.94
2022-11-12T14:30:46.053Z,67.76
2022-11-12T14:32:10.913Z,67.94
2022-11-12T14:33:34.383Z,67.84
2022-11-12T14:34:55.668Z,67.90
2022-11-12T14:36:19.530Z,67.86
2022-11-12T14:37:43.920Z,68.22
2022-11-12T14:39:06.511Z,68.85
2022-11-12T14:40:29.379Z,69.46
2022-11-12T14:41:53.862Z,69.22
2022-11-12T14:43:27.652Z,70.07
2022-11-12T14:44:50.349Z,70.65
2022-11-12T14:46:22.979Z,70.62
2022-11-12T14:47:44.481Z,70.85
2022-11-12T14:49:13.652Z,70.80
2022-11-12T14:50:40.751Z,70.98
2022-11-12T14:52:10.382Z,71.67
2022-11-12T14:53:34.652Z,71.39
2022-11-12T14:54:57.920Z,71.90
2022-11-12T14:56:28.958Z,72.16
2022-11-12T14:57:59.640Z,72.52
2022-11-12T14:59:21.719Z,72.54
2022-11-12T15:00:45.220Z,73.00
2022-11-12T15:04:06.404Z,73.44
2022-11-12T15:05:28.022Z,73.28
2022-11-12T15:06:54.724Z,73.09
2022-11-12T15:08:33.070Z,73.26
2022-11-12T15:09:55.993Z,73.57
2022-11-12T15:11:24.294Z,73.86
2022-11-12T15:12:46.889Z,74.29
2022-11-12T15:14:21.661Z,74.22
2022-11-12T15:15:52.609Z,74.78
2022-11-12T15:17:27.512Z,74.46
2022-11-12T15:19:05.100Z,74.30
2022-11-12T15:20:27.968Z,74.29
2022-11-12T15:21:53.155Z,75.53
2022-11-12T15:23:20.080Z,75.16
2022-11-12T15:24:44.966Z,75.34
2022-11-12T15:26:10.585Z,75.65
2022-11-12T15:27:37.330Z,75.45
2022-11-12T15:29:04.306Z,75.79
2022-11-12T15:30:30.785Z,75.92
2022-11-12T15:31:54.363Z,76.30
2022-11-12T15:33:20.060Z,75.72
2022-11-12T15:34:50.038Z,76.59
2022-11-12T15:36:17.521Z,76.80
2022-11-12T15:37:43.694Z,76.82
2022-11-12T15:39:13.919Z,77.10
2022-11-12T15:40:45.054Z,76.47
2022-11-12T15:42:16.077Z,76.39
2022-11-12T15:43:42.959Z,76.36
2022-11-12T15:45:11.363Z,77.01
2022-11-12T15:46:35.380Z,77.76
2022-11-12T15:47:57.972Z,77.74
2022-11-12T15:49:21.183Z,77.59
2022-11-12T15:50:43.914Z,77.93
2022-11-12T15:52:05.226Z,77.70
2022-11-12T15:53:28.979Z,77.97
2022-11-12T15:54:51.562Z,78.23
2022-11-12T15:56:16.310Z,77.54
2022-11-12T15:57:41.560Z,77.91
2022-11-12T15:59:04.861Z,78.58
2022-11-12T16:00:32.212Z,78.90
2022-11-12T16:01:56.203Z,78.47
2022-11-12T16:03:20.765Z,78.72
2022-11-12T16:04:43.172Z,78.66
2022-11-12T16:06:09.167Z,78.46
2022-11-12T16:07:31.700Z,78.93
2022-11-12T16:08:53.711Z,79.07
2022-11-12T16:10:18.310Z,78.87
2022-11-12T16:11:41.066Z,78.96
2022-11-12T16:13:04.390Z,79.31
2022-11-12T16:14:26.713Z,79.57
2022-11-12T16:15:51.753Z,79.72
2022-11-12T16:17:17.075Z,79.58
2022-11-12T16:18:39.838Z,79.67
2022-11-12T16:20:02.248Z,79.46
2022-11-12T16:21:25.468Z,79.16
2022-11-12T16:22:47.837Z,79.04
2022-11-12T16:24:10.303Z,79.48
2022-11-12T16:25:34.614Z,79.95
2022-11-12T16:26:57.069Z,80.37
2022-11-12T16:28:20.391Z,80.05
2022-11-12T16:29:42.972Z,80.63
2022-11-12T16:31:05.780Z,80.77
2022-11-12T16:32:29.803Z,80.58
2022-11-12T16:33:51.841Z,80.28
2022-11-12T16:35:14.254Z,80.27
2022-11-12T16:36:36.561Z,80.74
2022-11-12T16:37:59.503Z,81.41
2022-11-12T16:39:21.836Z,81.11
2022-11-12T16:40:44.870Z,80.60
2022-11-12T16:42:07.230Z,80.93
2022-11-12T16:43:29.536Z,80.90
2022-11-12T16:44:52.891Z,80.61
2022-11-12T16:46:18.297Z,80.81
2022-11-12T16:47:46.397Z,80.16
2022-11-12T16:49:15.032Z,81.08
2022-11-12T16:50:37.623Z,82.77
2022-11-12T16:52:01.753Z,82.49
2022-11-12T16:53:24.331Z,82.21
2022-11-12T16:54:47.394Z,81.44
2022-11-12T16:56:13.932Z,81.85
2022-11-12T16:57:37.458Z,81.76
2022-11-12T16:58:59.774Z,82.22
2022-11-12T17:00:22.672Z,82.10
2022-11-12T17:01:46.189Z,82.44
2022-11-12T17:03:13.077Z,81.31
2022-11-12T17:04:36.789Z,81.68
2022-11-12T17:05:59.574Z,82.21
2022-11-12T17:07:28.959Z,81.76
2022-11-12T17:08:56.621Z,81.45
2022-11-12T17:10:24.134Z,81.58
2022-11-12T17:11:47.027Z,82.22
2022-11-12T17:13:15.307Z,82.17
2022-11-12T17:14:40.420Z,82.56
2022-11-12T17:16:08.483Z,82.56
2022-11-12T17:17:32.745Z,81.79
2022-11-12T17:18:58.743Z,82.18
2022-11-12T17:20:21.359Z,82.68
2022-11-12T17:21:45.181Z,81.70
2022-11-12T17:23:07.439Z,81.97
2022-11-12T17:24:30.102Z,82.41
2022-11-12T17:26:01.953Z,82.46
2022-11-12T17:27:30.981Z,82.42
2022-11-12T17:29:03.507Z,81.12
2022-11-12T17:30:32.869Z,82.47
2022-11-12T17:31:55.727Z,82.82
2022-11-12T17:33:25.213Z,82.78
2022-11-12T17:34:54.823Z,82.58
2022-11-12T17:36:24.672Z,82.21
2022-11-12T17:37:49.088Z,82.68
2022-11-12T17:39:14.027Z,82.16
2022-11-12T17:40:35.590Z,82.35
2022-11-12T17:42:00.330Z,82.63
2022-11-12T17:43:22.313Z,82.69
2022-11-12T17:44:51.883Z,82.61
2022-11-12T17:46:22.153Z,82.56
2022-11-12T17:47:47.116Z,82.77
2022-11-12T17:49:11.246Z,83.22
2022-11-12T17:50:35.612Z,83.18
2022-11-12T17:51:58.160Z,83.38
2022-11-12T17:53:20.838Z,83.55
2022-11-12T17:54:44.542Z,82.84
2022-11-12T17:56:09.834Z,82.58
2022-11-12T17:57:33.452Z,83.23
2022-11-12T17:58:56.331Z,83.59
2022-11-12T18:00:19.799Z,83.53
2022-11-12T18:01:42.344Z,83.49
2022-11-12T18:03:05.052Z,83.18
2022-11-12T18:04:31.113Z,83.04
2022-11-12T18:06:05.234Z,83.28
2022-11-12T18:07:32.673Z,83.24
2022-11-12T18:08:57.482Z,82.98
2022-11-12T18:10:21.492Z,82.75
2022-11-12T18:11:50.532Z,82.81
2022-11-12T18:13:14.706Z,82.96
2022-11-12T18:14:39.193Z,82.69
2022-11-12T18:16:14.926Z,82.97
2022-11-12T18:17:38.562Z,83.46
2022-11-12T18:19:01.882Z,83.80
2022-11-12T18:20:26.198Z,83.48
2022-11-12T18:21:57.577Z,83.36
2022-11-12T18:23:22.152Z,83.94
2022-11-12T18:24:47.718Z,84.40